createdAt,value
2022-07-31T00:00:16.819Z,62.15
2022-07-31T00:02:44.631Z,61.49
2022-07-31T00:05:11.482Z,62.17
2022-07-31T00:07:38.130Z,62.09
2022-07-31T00:10:05.763Z,62.02
2022-07-31T00:12:32.373Z,63.70
2022-07-31T00:15:04.133Z,64.17
2022-07-31T00:17:32.355Z,64.89
2022-07-31T00:19:58.834Z,65.03
2022-07-31T00:22:25.294Z,66.04
2022-07-31T00:24:51.801Z,66.50
2022-07-31T00:27:18.314Z,66.98
2022-07-31T00:29:44.794Z,67.81
2022-07-31T00:32:11.539Z,67.41
2022-07-31T00:34:38.113Z,66.51
2022-07-31T00:37:05.199Z,66.50
2022-07-31T00:39:32.632Z,68.34
2022-07-31T00:41:59.255Z,68.77
2022-07-31T00:44:26.040Z,69.13
2022-07-31T00:46:52.745Z,68.88
2022-07-31T00:49:20.037Z,68.19
2022-07-31T00:51:47.074Z,69.21
2022-07-31T00:54:16.290Z,68.29
2022-07-31T00:56:49.084Z,67.58
2022-07-31T00:59:15.674Z,67.20
2022-07-31T01:01:42.157Z,66.84
2022-07-31T01:04:08.653Z,66.64
2022-07-31T01:06:42.786Z,66.75
2022-07-31T01:09:09.537Z,66.63
2022-07-31T01:11:44.708Z,66.74
2022-07-31T01:14:12.136Z,66.82
2022-07-31T01:16:46.862Z,66.93
2022-07-31T01:19:43.634Z,67.16
2022-07-31T01:22:34.242Z,67.36
2022-07-31T01:25:21.290Z,68.68
2022-07-31T01:27:50.683Z,68.99
2022-07-31T01:30:17.647Z,70.18
2022-07-31T01:32:49.309Z,69.67
2022-07-31T01:35:20.631Z,70.94
2022-07-31T01:38:07.858Z,70.99
2022-07-31T01:40:38.134Z,72.08
2022-07-31T01:43:11.663Z,72.28
2022-07-31T01:45:42.785Z,72.54
2022-07-31T01:48:15.857Z,73.17
2022-07-31T01:50:45.011Z,73.80
2022-07-31T01:53:15.213Z,73.68
2022-07-31T01:56:02.340Z,73.95
2022-07-31T01:58:34.945Z,73.86
2022-07-31T02:01:03.798Z,72.93
2022-07-31T02:03:44.530Z,72.30
2022-07-31T02:06:18.169Z,72.63
2022-07-31T02:08:50.541Z,72.73
2022-07-31T02:11:19.478Z,73.31
2022-07-31T02:13:47.330Z,72.91
2022-07-31T02:16:16.510Z,72.05
2022-07-31T02:18:43.570Z,71.96
2022-07-31T02:21:10.622Z,73.92
2022-07-31T02:23:38.545Z,73.54
2022-07-31T02:26:07.054Z,73.41
2022-07-31T02:28:38.012Z,73.87
2022-07-31T02:31:10.187Z,74.07
2022-07-31T02:33:38.214Z,73.96
2022-07-31T02:36:06.749Z,73.90
2022-07-31T02:38:35.138Z,74.59
2022-07-31T02:41:04.731Z,74.84
2022-07-31T02:43:33.255Z,74.82
2022-07-31T02:46:00.520Z,75.75
2022-07-31T02:48:27.777Z,76.11
2022-07-31T02:50:54.951Z,76.05
2022-07-31T02:53:22.102Z,76.73
2022-07-31T02:55:50.514Z,76.32
2022-07-31T02:58:17.139Z,76.59
2022-07-31T03:00:43.764Z,76.70
2022-07-31T03:03:10.290Z,76.75
2022-07-31T03:05:36.782Z,76.40
2022-07-31T03:08:03.326Z,76.19
2022-07-31T03:10:29.954Z,75.34
2022-07-31T03:12:58.261Z,75.32
2022-07-31T03:15:27.379Z,76.25
2022-07-31T03:17:54.865Z,76.18
2022-07-31T03:20:22.274Z,76.99
2022-07-31T03:22:49.620Z,76.83
2022-07-31T03:25:21.923Z,76.70
2022-07-31T03:27:55.948Z,77.90
2022-07-31T03:30:26.552Z,77.71
2022-07-31T03:32:54.918Z,77.86
2022-07-31T03:35:22.319Z,78.98
2022-07-31T03:37:49.533Z,79.31
2022-07-31T03:40:16.066Z,79.71
2022-07-31T03:42:43.378Z,79.59
2022-07-31T03:45:12.117Z,79.65
2022-07-31T03:47:38.660Z,79.58
2022-07-31T03:50:06.665Z,79.99
2022-07-31T03:52:33.490Z,79.86
2022-07-31T03:55:00.066Z,80.41
2022-07-31T03:57:29.053Z,80.68
2022-07-31T03:59:59.331Z,80.60
2022-07-31T04:02:27.447Z,80.86
2022-07-31T04:04:55.178Z,80.95
2022-07-31T04:07:21.643Z,80.73
2022-07-31T04:09:48.269Z,80.43
2022-07-31T04:12:14.989Z,79.90
2022-07-31T04:14:41.691Z,79.59
2022-07-31T04:17:08.570Z,80.08
2022-07-31T04:19:35.218Z,80.08
2022-07-31T04:22:02.546Z,78.68
2022-07-31T04:24:29.290Z,79.24
2022-07-31T04:26:56.971Z,78.65
2022-07-31T04:29:24.236Z,78.80
2022-07-31T04:31:51.012Z,78.63
2022-07-31T04:34:17.730Z,78.64
2022-07-31T04:36:44.226Z,78.53
2022-07-31T04:39:10.715Z,79.17
2022-07-31T04:41:37.305Z,79.00
2022-07-31T04:44:03.851Z,78.68
2022-07-31T04:46:30.358Z,78.52
2022-07-31T04:48:56.973Z,78.84
2022-07-31T04:51:24.743Z,78.46
2022-07-31T04:53:52.354Z,78.43
2022-07-31T04:56:37.316Z,79.12
2022-07-31T04:59:09.500Z,80.06
2022-07-31T05:01:36.573Z,80.80
2022-07-31T05:04:03.561Z,80.22
2022-07-31T05:06:35.362Z,79.75
2022-07-31T05:09:05.553Z,79.14
2022-07-31T05:11:36.352Z,79.38
2022-07-31T05:14:05.173Z,79.41
2022-07-31T05:16:33.575Z,79.58
2022-07-31T05:19:00.300Z,79.85
2022-07-31T05:21:27.187Z,80.76
2022-07-31T05:23:55.077Z,80.81
2022-07-31T05:26:22.026Z,81.14
2022-07-31T05:28:49.614Z,80.72
2022-07-31T05:31:18.205Z,79.22
2022-07-31T05:33:45.582Z,78.26
2022-07-31T05:36:12.775Z,78.67
2022-07-31T05:38:39.693Z,78.78
2022-07-31T05:41:06.332Z,79.04
2022-07-31T05:43:33.119Z,78.20
2022-07-31T05:45:59.728Z,79.36
2022-07-31T05:48:26.185Z,79.15
2022-07-31T05:50:52.768Z,79.45
2022-07-31T05:53:20.333Z,78.68
2022-07-31T05:55:49.125Z,78.57
2022-07-31T05:58:17.195Z,77.50
2022-07-31T06:00:46.315Z,77.25
2022-07-31T06:03:13.434Z,75.95
2022-07-31T06:05:41.175Z,75.33
2022-07-31T06:08:09.622Z,74.49
2022-07-31T06:10:37.373Z,75.38
2022-07-31T06:13:05.259Z,74.90
2022-07-31T06:15:36.354Z,74.86
2022-07-31T06:18:04.028Z,74.65
2022-07-31T06:20:30.981Z,73.94
2022-07-31T06:22:57.582Z,75.01
2022-07-31T06:25:24.231Z,74.11
2022-07-31T06:27:59.207Z,74.62
2022-07-31T06:30:27.996Z,74.34
2022-07-31T06:32:54.724Z,74.96
2022-07-31T06:35:21.265Z,74.36
2022-07-31T06:37:47.851Z,74.71
2022-07-31T06:40:14.578Z,74.09
2022-07-31T06:42:41.906Z,74.34
2022-07-31T06:45:09.358Z,72.79
2022-07-31T06:47:35.984Z,73.17
2022-07-31T06:50:03.646Z,72.22
2022-07-31T06:52:30.127Z,71.97
2022-07-31T06:54:56.607Z,72.15
2022-07-31T06:57:23.115Z,71.56
2022-07-31T06:59:49.621Z,70.61
2022-07-31T07:02:16.382Z,70.58
2022-07-31T07:04:56.320Z,70.55
2022-07-31T07:07:31.657Z,68.52
2022-07-31T07:09:58.852Z,69.35
2022-07-31T07:12:25.371Z,67.56
2022-07-31T07:14:53.505Z,69.28
2022-07-31T07:17:20.027Z,66.44
2022-07-31T07:19:46.695Z,66.51
2022-07-31T07:22:31.982Z,67.55
2022-07-31T07:25:00.352Z,66.97
2022-07-31T07:27:27.013Z,65.91
2022-07-31T07:29:53.523Z,64.96
2022-07-31T07:32:20.139Z,67.95
2022-07-31T07:34:46.607Z,65.10
2022-07-31T07:37:13.254Z,66.98
2022-07-31T07:39:39.722Z,67.18
2022-07-31T07:42:06.656Z,61.88
2022-07-31T07:44:34.060Z,61.78
2022-07-31T07:47:00.531Z,62.18
2022-07-31T07:49:27.100Z,64.34
2022-07-31T07:51:59.152Z,63.64
2022-07-31T07:54:36.336Z,62.94
2022-07-31T07:57:02.913Z,62.45
2022-07-31T07:59:29.401Z,64.44
2022-07-31T08:01:56.391Z,64.47
2022-07-31T08:04:22.908Z,61.56
2022-07-31T08:06:49.377Z,61.63
2022-07-31T08:09:15.903Z,64.51
2022-07-31T08:11:42.578Z,63.78
2022-07-31T08:14:09.588Z,62.19
2022-07-31T08:16:36.092Z,60.57
2022-07-31T08:19:02.707Z,61.62
2022-07-31T08:21:29.225Z,59.07
2022-07-31T08:23:55.819Z,60.19
2022-07-31T08:26:22.705Z,61.22
2022-07-31T08:28:54.849Z,58.76
2022-07-31T08:31:22.662Z,59.95
2022-07-31T08:33:49.171Z,58.24
2022-07-31T08:36:15.805Z,61.47
2022-07-31T08:38:42.291Z,60.34
2022-07-31T08:41:08.817Z,60.18
2022-07-31T08:44:00.618Z,59.74
2022-07-31T08:46:24.569Z,60.30
2022-07-31T08:48:54.482Z,60.40
2022-07-31T08:51:24.026Z,59.79
2022-07-31T08:53:54.489Z,60.23
2022-07-31T08:56:22.117Z,58.99
2022-07-31T08:58:48.690Z,60.98
2022-07-31T09:01:15.372Z,61.61
2022-07-31T09:03:42.210Z,59.15
2022-07-31T09:06:08.751Z,58.40
2022-07-31T09:08:36.949Z,58.58
2022-07-31T09:11:09.212Z,60.89
2022-07-31T09:13:36.022Z,58.83
2022-07-31T09:16:03.930Z,60.32
2022-07-31T09:18:31.205Z,59.66
2022-07-31T09:20:57.695Z,56.15
2022-07-31T09:23:26.538Z,58.45
2022-07-31T09:25:55.716Z,62.05
2022-07-31T09:28:35.718Z,57.80
2022-07-31T09:31:04.347Z,58.09
2022-07-31T09:33:32.014Z,57.59
2022-07-31T09:35:59.769Z,57.53
2022-07-31T09:38:44.706Z,63.43
2022-07-31T09:41:56.398Z,57.01
2022-07-31T09:44:10.156Z,59.73
2022-07-31T09:46:41.360Z,60.21
2022-07-31T09:49:08.057Z,57.47
2022-07-31T09:51:54.138Z,56.22
2022-07-31T09:54:25.673Z,54.58
2022-07-31T09:56:54.784Z,55.14
2022-07-31T09:59:21.402Z,52.22
2022-07-31T10:01:49.022Z,53.95
2022-07-31T10:04:20.661Z,57.83
2022-07-31T10:06:49.230Z,58.76
2022-07-31T10:09:18.983Z,57.11
2022-07-31T10:11:48.680Z,54.42
2022-07-31T10:14:24.042Z,55.61
2022-07-31T10:16:56.290Z,55.66
2022-07-31T10:19:23.671Z,56.52
2022-07-31T10:21:59.708Z,58.42
2022-07-31T10:24:30.124Z,56.49
2022-07-31T10:27:10.518Z,58.74
2022-07-31T10:29:39.355Z,57.48
2022-07-31T10:32:07.704Z,58.22
2022-07-31T10:34:35.272Z,55.76
2022-07-31T10:37:15.103Z,58.05
2022-07-31T10:40:03.854Z,55.70
2022-07-31T10:42:48.578Z,57.17
2022-07-31T10:45:17.356Z,56.45
2022-07-31T10:48:13.385Z,56.85
2022-07-31T10:50:39.913Z,58.32
2022-07-31T10:53:12.588Z,57.39
2022-07-31T10:55:39.697Z,58.36
2022-07-31T10:58:15.468Z,60.32
2022-07-31T11:00:43.108Z,59.34
2022-07-31T11:03:16.706Z,57.86
2022-07-31T11:06:02.549Z,57.35
2022-07-31T11:08:44.467Z,54.48
2022-07-31T11:11:11.497Z,57.63
2022-07-31T11:13:58.104Z,56.78
2022-07-31T11:16:29.076Z,55.53
2022-07-31T11:19:06.851Z,57.09
2022-07-31T11:21:39.753Z,55.71
2022-07-31T11:24:17.283Z,56.58
2022-07-31T11:26:51.492Z,53.64
2022-07-31T11:29:59.799Z,57.75
2022-07-31T11:32:26.439Z,57.83
2022-07-31T11:34:55.408Z,55.50
2022-07-31T11:37:35.296Z,54.22
2022-07-31T11:40:13.605Z,52.66
2022-07-31T11:42:59.782Z,54.25
2022-07-31T11:45:33.476Z,52.46
2022-07-31T11:48:12.394Z,52.36
2022-07-31T11:50:44.590Z,55.35
2022-07-31T11:53:12.055Z,54.12
2022-07-31T11:55:48.750Z,52.55
2022-07-31T11:58:16.878Z,52.49
2022-07-31T12:00:53.630Z,53.05
2022-07-31T12:03:23.501Z,55.45
2022-07-31T12:05:54.995Z,58.56
2022-07-31T12:08:24.232Z,55.95
2022-07-31T12:10:54.672Z,54.12
2022-07-31T12:13:22.664Z,55.31
2022-07-31T12:16:09.435Z,54.18
2022-07-31T12:18:59.052Z,55.85
2022-07-31T12:21:37.652Z,52.23
2022-07-31T12:24:12.511Z,54.67
2022-07-31T12:26:42.869Z,54.05
2022-07-31T12:29:11.509Z,55.03
2022-07-31T12:31:49.776Z,53.45
2022-07-31T12:34:30.191Z,52.69
2022-07-31T12:36:58.714Z,54.76
2022-07-31T12:39:53.781Z,52.04
2022-07-31T12:42:30.342Z,53.98
2022-07-31T12:44:58.916Z,52.24
2022-07-31T12:47:31.701Z,52.30
2022-07-31T12:49:59.336Z,56.14
2022-07-31T12:52:31.415Z,55.37
2022-07-31T12:54:58.707Z,56.72
2022-07-31T12:57:26.208Z,55.54
2022-07-31T12:59:54.438Z,56.28
2022-07-31T13:02:24.267Z,60.78
2022-07-31T13:04:50.771Z,61.45
2022-07-31T13:07:17.326Z,62.83
2022-07-31T13:09:44.988Z,65.70
2022-07-31T13:12:31.468Z,63.79
2022-07-31T13:14:57.958Z,62.01
2022-07-31T13:17:24.826Z,64.36
2022-07-31T13:19:51.277Z,60.31
2022-07-31T13:22:20.133Z,60.89
2022-07-31T13:24:47.062Z,59.14
2022-07-31T13:27:14.635Z,59.78
2022-07-31T13:29:41.362Z,60.41
2022-07-31T13:32:08.927Z,61.36
2022-07-31T13:34:35.969Z,61.94
2022-07-31T13:37:02.828Z,62.02
2022-07-31T13:39:29.549Z,61.87
2022-07-31T13:41:55.967Z,62.17
2022-07-31T13:44:22.422Z,60.17
2022-07-31T13:46:48.937Z,62.56
2022-07-31T13:49:15.640Z,61.56
2022-07-31T13:51:42.268Z,61.05
2022-07-31T13:54:08.783Z,63.37
2022-07-31T13:56:42.350Z,62.24
2022-07-31T13:59:11.669Z,61.62
2022-07-31T14:02:02.775Z,61.58
2022-07-31T14:04:32.378Z,60.29
2022-07-31T14:07:01.344Z,61.58
2022-07-31T14:09:30.410Z,62.35
2022-07-31T14:11:57.066Z,65.36
2022-07-31T14:14:24.015Z,63.46
2022-07-31T14:16:51.003Z,63.89
2022-07-31T14:19:17.719Z,65.90
2022-07-31T14:21:56.057Z,69.05
2022-07-31T14:24:24.389Z,68.87
2022-07-31T14:26:50.843Z,69.63
2022-07-31T14:29:17.485Z,69.88
2022-07-31T14:31:43.954Z,69.42
2022-07-31T14:34:10.471Z,69.19
2022-07-31T14:36:36.950Z,66.78
2022-07-31T14:39:03.533Z,66.98
2022-07-31T14:41:32.678Z,69.47
2022-07-31T14:43:59.389Z,69.79
2022-07-31T14:46:25.883Z,69.62
2022-07-31T14:48:52.521Z,68.33
2022-07-31T14:51:19.483Z,69.19
2022-07-31T14:53:46.831Z,69.62
2022-07-31T14:56:13.513Z,67.29
2022-07-31T14:58:57.821Z,68.26
2022-07-31T15:01:26.870Z,67.85
2022-07-31T15:03:57.888Z,68.59
2022-07-31T15:06:49.264Z,68.23
2022-07-31T15:09:11.321Z,67.49
2022-07-31T15:12:00.526Z,65.99
2022-07-31T15:14:24.422Z,66.41
2022-07-31T15:16:50.910Z,69.04
2022-07-31T15:19:17.643Z,65.90
2022-07-31T15:22:15.827Z,65.54
2022-07-31T15:24:34.623Z,66.90
2022-07-31T15:27:01.947Z,64.97
2022-07-31T15:30:05.554Z,65.96
2022-07-31T15:32:17.799Z,63.95
2022-07-31T15:34:44.914Z,66.38
2022-07-31T15:37:11.558Z,66.61
2022-07-31T15:40:02.502Z,66.66
2022-07-31T15:42:31.867Z,68.21
2022-07-31T15:44:58.472Z,65.29
2022-07-31T15:47:25.253Z,65.92
2022-07-31T15:49:51.813Z,67.47
2022-07-31T15:52:19.554Z,68.89
2022-07-31T15:54:47.526Z,66.49
2022-07-31T15:57:19.350Z,64.99
2022-07-31T15:59:46.569Z,64.36
2022-07-31T16:02:13.451Z,65.17
2022-07-31T16:04:52.534Z,66.56
2022-07-31T16:08:30.982Z,65.66
2022-07-31T16:10:17.939Z,66.28
2022-07-31T16:12:45.692Z,65.67
2022-07-31T16:15:12.930Z,65.43
2022-07-31T16:17:40.274Z,66.42
2022-07-31T16:20:20.632Z,66.14
2022-07-31T16:23:00.822Z,66.92
2022-07-31T16:25:29.068Z,67.80
2022-07-31T16:27:55.889Z,67.47
2022-07-31T16:30:22.908Z,68.56
2022-07-31T16:32:50.067Z,68.01
2022-07-31T16:35:16.655Z,68.59
2022-07-31T16:37:51.016Z,68.13
2022-07-31T16:40:28.929Z,67.34
2022-07-31T16:43:49.453Z,66.63
2022-07-31T16:45:55.094Z,67.45
2022-07-31T16:48:21.858Z,68.98
2022-07-31T16:50:54.095Z,67.92
2022-07-31T16:54:12.125Z,67.46
2022-07-31T16:56:12.937Z,68.56
2022-07-31T16:58:39.804Z,68.40
2022-07-31T17:01:06.369Z,67.06
2022-07-31T17:04:01.650Z,67.38
2022-07-31T17:06:35.885Z,66.66
2022-07-31T17:09:16.266Z,66.85
2022-07-31T17:11:46.522Z,67.96
2022-07-31T17:14:13.101Z,68.15
2022-07-31T17:16:43.459Z,71.71
2022-07-31T17:19:13.201Z,72.15
2022-07-31T17:21:43.967Z,74.49
2022-07-31T17:24:15.856Z,74.45
2022-07-31T17:26:43.570Z,77.08
2022-07-31T17:29:10.163Z,76.25
2022-07-31T17:31:36.664Z,79.82
2022-07-31T17:34:07.303Z,81.92
2022-07-31T17:36:35.878Z,83.07
2022-07-31T17:39:03.416Z,83.89
2022-07-31T17:41:30.466Z,87.53
2022-07-31T17:43:58.095Z,88.33
2022-07-31T17:46:29.338Z,93.02
2022-07-31T17:49:04.905Z,97.73
2022-07-31T17:51:32.210Z,100.00
2022-07-31T17:53:59.266Z,100.00
2022-07-31T17:56:26.652Z,100.00
2022-07-31T17:58:53.317Z,100.00
2022-07-31T18:01:19.877Z,100.00
2022-07-31T18:03:46.437Z,100.00
2022-07-31T18:06:12.947Z,100.00
2022-07-31T18:08:39.442Z,100.00
2022-07-31T18:11:09.399Z,100.00
2022-07-31T18:13:48.174Z,100.00
2022-07-31T18:16:17.511Z,100.00
2022-07-31T18:18:44.861Z,100.00
2022-07-31T18:21:11.984Z,100.00
2022-07-31T18:23:47.149Z,100.00
2022-07-31T18:26:15.135Z,100.00
2022-07-31T18:28:43.127Z,100.00
2022-07-31T18:31:15.530Z,100.00
2022-07-31T18:33:57.615Z,100.00
2022-07-31T18:36:24.108Z,100.00
2022-07-31T18:38:52.046Z,100.00
2022-07-31T18:41:23.054Z,100.00
2022-07-31T18:43:50.201Z,100.00
2022-07-31T18:46:17.004Z,100.00
2022-07-31T18:48:44.415Z,100.00
2022-07-31T18:51:11.390Z,100.00
2022-07-31T18:53:37.925Z,100.00
2022-07-31T18:56:04.890Z,100.00
2022-07-31T18:58:31.931Z,100.00
2022-07-31T19:00:58.761Z,100.00
2022-07-31T19:03:26.588Z,100.00
2022-07-31T19:05:54.625Z,100.00
2022-07-31T19:08:21.788Z,100.00
2022-07-31T19:10:55.561Z,100.00
2022-07-31T19:13:23.554Z,100.00
2022-07-31T19:15:53.223Z,100.00
2022-07-31T19:18:24.377Z,100.00
2022-07-31T19:21:15.945Z,100.00
2022-07-31T19:23:43.355Z,100.00
2022-07-31T19:26:09.857Z,100.00
2022-07-31T19:28:38.064Z,100.00
2022-07-31T19:31:04.551Z,100.00
2022-07-31T19:33:31.376Z,100.00
2022-07-31T19:36:01.938Z,100.00
2022-07-31T19:38:31.141Z,100.00
2022-07-31T19:40:57.801Z,100.00
2022-07-31T19:43:24.324Z,100.00
2022-07-31T19:46:10.741Z,100.00
2022-07-31T19:48:39.629Z,100.00
2022-07-31T19:51:06.535Z,100.00
2022-07-31T19:53:33.105Z,100.00
2022-07-31T19:56:01.885Z,100.00
2022-07-31T19:58:28.396Z,100.00
2022-07-31T20:00:54.935Z,100.00
2022-07-31T20:03:21.525Z,100.00
2022-07-31T20:05:48.028Z,100.00
2022-07-31T20:08:14.491Z,100.00
2022-07-31T20:10:41.034Z,100.00
2022-07-31T20:13:07.514Z,100.00
2022-07-31T20:15:51.537Z,100.00
2022-07-31T20:18:27.582Z,100.00
2022-07-31T20:21:03.679Z,100.00
2022-07-31T20:23:31.100Z,100.00
2022-07-31T20:25:58.628Z,100.00
2022-07-31T20:28:26.459Z,100.00
2022-07-31T20:30:53.318Z,100.00
2022-07-31T20:33:20.302Z,100.00
2022-07-31T20:35:49.213Z,100.00
2022-07-31T20:38:20.481Z,100.00
2022-07-31T20:40:53.776Z,100.00
2022-07-31T20:43:26.475Z,100.00
2022-07-31T20:45:53.728Z,100.00
2022-07-31T20:48:23.871Z,100.00
2022-07-31T20:50:51.203Z,100.00
2022-07-31T20:53:17.709Z,100.00
2022-07-31T20:55:49.330Z,100.00
2022-07-31T20:58:18.010Z,100.00
2022-07-31T21:00:45.436Z,100.00
2022-07-31T21:03:12.021Z,100.00
2022-07-31T21:05:38.588Z,100.00
2022-07-31T21:08:05.491Z,100.00
2022-07-31T21:10:32.028Z,100.00
2022-07-31T21:12:58.576Z,100.00
2022-07-31T21:15:40.721Z,100.00
2022-07-31T21:18:08.148Z,100.00
2022-07-31T21:20:51.384Z,100.00
2022-07-31T21:23:22.054Z,100.00
2022-07-31T21:25:48.882Z,100.00
2022-07-31T21:28:15.624Z,100.00
2022-07-31T21:30:42.283Z,100.00
2022-07-31T21:33:09.922Z,100.00
2022-07-31T21:35:37.564Z,100.00
2022-07-31T21:38:05.014Z,100.00
2022-07-31T21:40:36.049Z,100.00
2022-07-31T21:43:03.426Z,100.00
2022-07-31T21:45:51.035Z,100.00
2022-07-31T21:48:19.713Z,100.00
2022-07-31T21:50:46.674Z,100.00
2022-07-31T21:53:14.206Z,100.00
2022-07-31T21:55:41.037Z,100.00
2022-07-31T21:58:08.884Z,100.00
2022-07-31T22:00:35.496Z,100.00
2022-07-31T22:03:02.856Z,100.00
2022-07-31T22:05:48.723Z,100.00
2022-07-31T22:08:15.279Z,100.00
2022-07-31T22:10:42.130Z,100.00
2022-07-31T22:13:08.742Z,100.00
2022-07-31T22:15:55.560Z,100.00
2022-07-31T22:18:22.092Z,100.00
2022-07-31T22:20:48.727Z,100.00
2022-07-31T22:23:15.534Z,100.00
2022-07-31T22:25:42.957Z,100.00
2022-07-31T22:28:09.967Z,100.00
2022-07-31T22:30:36.646Z,100.00
2022-07-31T22:33:04.852Z,100.00
2022-07-31T22:35:32.460Z,100.00
2022-07-31T22:37:58.979Z,100.00
2022-07-31T22:40:25.616Z,100.00
2022-07-31T22:42:57.453Z,100.00
2022-07-31T22:45:25.279Z,100.00
2022-07-31T22:47:52.035Z,100.00
2022-07-31T22:50:18.588Z,100.00
2022-07-31T22:52:45.156Z,100.00
2022-07-31T22:55:13.598Z,100.00
2022-07-31T22:57:43.618Z,100.00
2022-07-31T23:00:13.167Z,100.00
2022-07-31T23:02:41.203Z,100.00
2022-07-31T23:05:08.976Z,100.00
2022-07-31T23:07:35.616Z,100.00
2022-07-31T23:10:02.420Z,100.00
2022-07-31T23:12:29.632Z,100.00
2022-07-31T23:14:56.461Z,100.00
2022-07-31T23:17:23.628Z,100.00
2022-07-31T23:19:54.191Z,100.00
2022-07-31T23:22:33.798Z,100.00
2022-07-31T23:25:05.232Z,100.00
2022-07-31T23:27:33.095Z,100.00
2022-07-31T23:30:00.029Z,100.00
2022-07-31T23:32:27.690Z,100.00
2022-07-31T23:34:54.546Z,100.00
2022-07-31T23:37:21.260Z,100.00
2022-07-31T23:39:47.773Z,100.00
2022-07-31T23:42:33.181Z,100.00
2022-07-31T23:44:59.754Z,100.00
2022-07-31T23:47:27.967Z,100.00
2022-07-31T23:50:11.790Z,100.00
2022-07-31T23:52:38.296Z,100.00
2022-07-31T23:55:05.061Z,100.00
2022-07-31T23:57:34.161Z,100.00
